Time;durP1;ratioP1;P1;durP2;ratioP2;P2;SDS_P1;SDS_P2;PMS_P1;PMS_P2;Temp;Humidity;BMP_temperature;BMP_pressure;BME280_temperature;BME280_humidity;BME280_pressure;Samples;Min_cycle;Max_cycle;Signal;HPM_P1;HPM_P2
2022/12/21 02:39:16;;;;;;;4.97;2.85;;;11.70;64.10;;;;;;5614455;23;20085;-77
2022/12/21 02:44:12;;;;;;;4.43;2.42;;;11.60;64.40;;;;;;4881994;29;20060;-80
2022/12/21 02:45:13;;;;;;;6.70;2.70;;;11.70;65.00;;;;;;4867154;29;20485;-77
2022/12/21 02:47:46;;;;;;;4.32;2.35;;;11.80;65.30;;;;;;4883785;29;20116;-82
2022/12/21 02:50:14;;;;;;;5.03;2.55;;;11.90;65.60;;;;;;4867662;29;20053;-80
2022/12/21 02:52:51;;;;;;;17.08;3.20;;;11.90;65.70;;;;;;4851699;29;20069;-81
2022/12/21 02:55:17;;;;;;;6.20;2.25;;;12.00;65.90;;;;;;4884186;29;20053;-83
2022/12/21 02:57:44;;;;;;;5.03;2.42;;;12.10;66.00;;;;;;4884077;29;20048;-78
2022/12/21 03:00:17;;;;;;;7.90;2.75;;;12.10;66.10;;;;;;4884344;29;20055;-81
2022/12/21 03:03:47;;;;;;;4.85;2.15;;;12.20;66.30;;;;;;4867360;29;20124;-78
2022/12/21 03:05:47;;;;;;;7.80;2.65;;;12.30;66.30;;;;;;4883879;29;20125;-80
2022/12/21 03:08:32;;;;;;;9.30;2.92;;;12.30;66.40;;;;;;4883366;29;20053;-81
2022/12/21 03:11:01;;;;;;;10.65;2.20;;;12.40;66.40;;;;;;4836385;29;20061;-76
2022/12/21 03:14:15;;;;;;;6.93;2.47;;;12.40;66.40;;;;;;4883600;29;20052;-76
2022/12/21 03:17:15;;;;;;;8.43;2.30;;;12.40;66.50;;;;;;4800750;29;20063;-76
2022/12/21 03:19:52;;;;;;;12.90;3.05;;;12.50;66.30;;;;;;4883805;29;20084;-77
2022/12/21 03:22:45;;;;;;;11.20;2.90;;;12.50;66.10;;;;;;4891697;29;20052;-78
2022/12/21 03:25:25;;;;;;;3.78;2.25;;;12.50;65.70;;;;;;4891328;29;20379;-77
2022/12/21 03:27:59;;;;;;;8.40;3.38;;;12.50;65.30;;;;;;4889328;29;20040;-80
2022/12/21 03:30:38;;;;;;;8.65;2.95;;;12.50;65.30;;;;;;4890922;29;20044;-74
2022/12/21 03:33:14;;;;;;;3.20;2.50;;;12.60;65.10;;;;;;4890911;29;20037;-75
2022/12/21 03:35:59;;;;;;;5.10;2.80;;;12.60;64.90;;;;;;4890021;29;20057;-76
2022/12/21 03:38:36;;;;;;;6.22;2.92;;;12.60;64.60;;;;;;4892345;29;20045;-79
2022/12/21 03:41:07;;;;;;;7.35;2.88;;;12.60;64.50;;;;;;4892046;29;20061;-77
2022/12/21 03:43:35;;;;;;;4.50;2.47;;;12.60;64.50;;;;;;4888541;29;20200;-78
2022/12/21 03:46:08;;;;;;;4.90;3.00;;;12.60;64.30;;;;;;4891851;29;20376;-75
2022/12/21 03:48:40;;;;;;;6.05;2.80;;;12.60;64.00;;;;;;4889210;29;20062;-74
2022/12/21 03:51:15;;;;;;;4.22;2.55;;;12.60;63.90;;;;;;4892453;29;20041;-75
2022/12/21 03:53:48;;;;;;;5.30;3.00;;;12.60;63.80;;;;;;4890108;29;20137;-74
2022/12/21 03:56:24;;;;;;;5.22;2.92;;;12.60;63.60;;;;;;4891850;29;20048;-79
2022/12/21 03:58:49;;;;;;;3.17;2.75;;;12.60;63.50;;;;;;4887169;29;20049;-77
2022/12/21 04:01:57;;;;;;;4.28;3.10;;;12.60;63.40;;;;;;4890951;29;20055;-76
2022/12/21 04:04:28;;;;;;;5.80;3.10;;;12.70;63.30;;;;;;4890382;29;20482;-77
2022/12/21 04:06:58;;;;;;;4.95;3.30;;;12.60;63.20;;;;;;4891084;29;20052;-80
2022/12/21 04:09:24;;;;;;;6.88;3.13;;;12.60;63.20;;;;;;4873963;29;20128;-72
2022/12/21 04:14:34;;;;;;;6.30;2.95;;;12.60;63.10;;;;;;4889795;29;20053;-74
2022/12/21 04:17:00;;;;;;;6.63;3.15;;;12.60;63.00;;;;;;4890139;29;20448;-76
2022/12/21 04:28:06;;;;;;;5.50;2.83;;;12.60;62.90;;;;;;4887505;29;20048;-75
2022/12/21 04:30:24;;;;;;;3.58;2.85;;;12.60;62.80;;;;;;4900916;29;19923;-76
2022/12/21 04:32:50;;;;;;;3.35;2.97;;;12.60;62.60;;;;;;4888393;29;20056;-76
2022/12/21 04:35:16;;;;;;;3.28;2.85;;;12.60;62.60;;;;;;4890787;29;20124;-77
2022/12/21 04:37:42;;;;;;;4.20;2.97;;;12.60;62.50;;;;;;4896033;29;20450;-80
2022/12/21 04:40:08;;;;;;;4.30;2.97;;;12.60;62.50;;;;;;4889823;29;20132;-74
2022/12/21 04:42:34;;;;;;;4.68;2.70;;;12.60;62.50;;;;;;4889004;29;20049;-76
2022/12/21 04:44:59;;;;;;;3.72;2.40;;;12.60;62.50;;;;;;4875010;29;20123;-76
2022/12/21 04:47:25;;;;;;;4.15;2.70;;;12.60;62.60;;;;;;4890230;29;20049;-80
2022/12/21 04:49:51;;;;;;;2.47;2.28;;;12.60;62.50;;;;;;4888342;29;20053;-79
2022/12/21 04:52:17;;;;;;;3.00;2.70;;;12.60;62.40;;;;;;4886763;29;20047;-75
2022/12/21 04:54:42;;;;;;;2.85;2.33;;;12.60;62.50;;;;;;4890679;29;20463;-78
2022/12/21 04:57:08;;;;;;;7.63;3.92;;;12.60;62.40;;;;;;4891129;29;20140;-81
2022/12/21 04:59:34;;;;;;;4.75;2.88;;;12.60;62.50;;;;;;4890692;29;20471;-75
2022/12/21 05:01:59;;;;;;;5.25;2.78;;;12.60;62.60;;;;;;4888581;29;20059;-76
2022/12/21 05:04:25;;;;;;;6.60;3.08;;;12.60;62.60;;;;;;4873918;29;20048;-81
2022/12/21 05:06:51;;;;;;;7.47;3.22;;;12.60;62.60;;;;;;4872920;29;20172;-78
2022/12/21 05:09:16;;;;;;;7.28;3.10;;;12.60;62.60;;;;;;4870432;29;20112;-76
2022/12/21 05:11:42;;;;;;;9.52;3.30;;;12.60;62.50;;;;;;4889107;29;20048;-76
2022/12/21 05:14:08;;;;;;;5.28;3.05;;;12.60;62.50;;;;;;4888922;29;20041;-76
2022/12/21 05:16:33;;;;;;;5.57;2.72;;;12.60;62.50;;;;;;4874579;29;20048;-76
2022/12/21 05:18:59;;;;;;;5.63;2.85;;;12.60;62.40;;;;;;4873293;29;20352;-77
2022/12/21 05:21:25;;;;;;;8.23;3.67;;;12.60;62.40;;;;;;4887069;29;20085;-76
2022/12/21 05:23:51;;;;;;;6.78;3.47;;;12.60;62.40;;;;;;4890826;29;20427;-75
2022/12/21 05:26:17;;;;;;;5.68;3.40;;;12.60;62.50;;;;;;4889125;29;20124;-74
2022/12/21 05:28:44;;;;;;;8.95;2.65;;;12.60;62.90;;;;;;4887630;29;20092;-83
2022/12/21 05:31:10;;;;;;;5.32;2.05;;;12.60;64.20;;;;;;4880770;29;20428;-82
2022/12/21 05:33:37;;;;;;;6.20;2.58;;;12.70;64.50;;;;;;4864434;29;20525;-83
2022/12/21 05:36:08;;;;;;;8.05;2.42;;;12.80;63.90;;;;;;4880811;29;20049;-81
2022/12/21 05:38:33;;;;;;;10.02;2.45;;;13.00;64.10;;;;;;4880577;29;20049;-80
2022/12/21 05:40:59;;;;;;;9.30;2.25;;;13.20;64.30;;;;;;4880993;29;20105;-82
2022/12/21 05:43:25;;;;;;;13.70;3.58;;;13.40;64.50;;;;;;4864474;29;20084;-80
2022/12/21 05:45:51;;;;;;;10.73;3.15;;;13.40;62.50;;;;;;4864160;29;20060;-79
2022/12/21 05:48:19;;;;;;;10.57;2.20;;;13.30;63.70;;;;;;4880870;29;20365;-78
2022/12/21 05:50:47;;;;;;;9.95;2.08;;;13.50;64.70;;;;;;4881266;29;20089;-89
2022/12/21 05:53:13;;;;;;;12.68;2.28;;;13.60;64.30;;;;;;4849161;29;20053;-86
2022/12/21 05:55:43;;;;;;;10.45;3.05;;;13.70;64.80;;;;;;4864046;29;20048;-73
2022/12/21 05:58:09;;;;;;;17.25;2.33;;;13.90;64.90;;;;;;4880565;29;20091;-80
2022/12/21 06:00:34;;;;;;;8.43;2.40;;;14.10;64.90;;;;;;4880676;29;20092;-83
2022/12/21 06:03:00;;;;;;;11.55;2.25;;;14.20;65.30;;;;;;4849615;29;20045;-80
2022/12/21 06:05:27;;;;;;;17.52;2.17;;;14.30;65.70;;;;;;4848578;29;20053;-81
2022/12/21 06:07:53;;;;;;;15.02;3.17;;;14.40;65.90;;;;;;4880430;29;20491;-81
2022/12/21 06:10:18;;;;;;;13.85;2.85;;;14.50;66.00;;;;;;4863358;29;20053;-81
2022/12/21 06:12:44;;;;;;;9.85;2.67;;;14.50;66.20;;;;;;4863884;29;20056;-81
2022/12/21 06:15:10;;;;;;;15.93;2.75;;;14.60;66.50;;;;;;4848300;29;20057;-77
2022/12/21 06:17:35;;;;;;;7.90;2.08;;;14.60;66.60;;;;;;4848887;29;20057;-79
2022/12/21 06:20:01;;;;;;;11.07;2.58;;;14.60;66.70;;;;;;4865039;29;20147;-78
2022/12/21 06:22:27;;;;;;;16.33;2.25;;;14.70;66.60;;;;;;4864874;29;20360;-73
2022/12/21 06:24:53;;;;;;;21.70;3.55;;;14.70;66.60;;;;;;4881683;29;20438;-79
2022/12/21 06:27:18;;;;;;;19.67;2.95;;;14.80;66.40;;;;;;4884894;29;20045;-74
2022/12/21 06:29:44;;;;;;;16.50;2.65;;;14.90;66.30;;;;;;4883899;29;20372;-76
2022/12/21 06:32:10;;;;;;;12.15;4.22;;;14.90;66.10;;;;;;4883946;29;20429;-82
2022/12/21 06:34:36;;;;;;;14.32;2.50;;;14.80;64.10;;;;;;4884044;29;20049;-80
2022/12/21 06:37:02;;;;;;;13.07;2.72;;;15.00;65.70;;;;;;4883980;29;20041;-83
2022/12/21 06:39:27;;;;;;;9.35;2.15;;;15.10;65.60;;;;;;4867459;29;20115;-85
2022/12/21 06:41:56;;;;;;;10.07;2.72;;;15.20;65.40;;;;;;4867454;29;20049;-84
2022/12/21 06:44:21;;;;;;;14.45;3.15;;;15.30;65.20;;;;;;4867004;29;20060;-81
2022/12/21 06:47:18;;;;;;;10.13;2.40;;;15.30;65.00;;;;;;4866930;29;20037;-83
2022/12/21 06:49:56;;;;;;;10.27;2.42;;;15.40;64.80;;;;;;4852416;29;20037;-83
2022/12/21 06:52:22;;;;;;;14.82;2.95;;;15.40;64.70;;;;;;4879680;29;20341;-83
2022/12/21 06:54:56;;;;;;;7.97;3.08;;;15.40;64.20;;;;;;4867047;29;20049;-85
2022/12/21 06:57:22;;;;;;;11.13;3.50;;;15.50;63.10;;;;;;4880966;29;20036;-84
2022/12/21 06:59:48;;;;;;;10.15;3.05;;;15.50;62.30;;;;;;4885406;29;20063;-84
2022/12/21 07:02:19;;;;;;;13.43;3.28;;;15.50;62.40;;;;;;4886027;29;20123;-84
2022/12/21 07:04:52;;;;;;;14.85;3.15;;;15.40;62.20;;;;;;4875233;29;20087;-83
2022/12/21 07:07:26;;;;;;;17.00;4.30;;;15.40;63.10;;;;;;4851448;29;20432;-84
2022/12/21 07:09:55;;;;;;;13.23;3.70;;;15.40;63.20;;;;;;4851551;29;20135;-85
2022/12/21 07:12:31;;;;;;;13.15;3.83;;;15.40;63.50;;;;;;4866091;29;20041;-88
2022/12/21 07:14:58;;;;;;;17.40;4.43;;;15.30;63.90;;;;;;4866034;29;20051;-80
2022/12/21 07:18:50;;;;;;;;;;;;;;;;;;;;;
2022/12/21 07:21:49;;;;;;;23.05;4.10;;;15.20;64.60;;;;;;4780848;29;20172;-85
2022/12/21 07:24:23;;;;;;;17.25;4.05;;;15.20;64.70;;;;;;4822113;29;20057;-84
2022/12/21 07:27:38;;;;;;;18.13;4.22;;;15.10;65.30;;;;;;4832804;29;20057;-83
2022/12/21 07:30:07;;;;;;;13.65;3.60;;;15.10;65.20;;;;;;4859618;29;20060;-81
2022/12/21 07:32:33;;;;;;;15.45;3.88;;;15.00;65.70;;;;;;4882918;29;20040;-78
2022/12/21 07:34:59;;;;;;;14.73;3.90;;;15.00;66.00;;;;;;4850793;29;20128;-81
2022/12/21 07:37:24;;;;;;;11.30;3.17;;;15.00;66.20;;;;;;4865225;29;20059;-76
2022/12/21 07:39:50;;;;;;;29.35;5.35;;;15.00;66.50;;;;;;4882382;29;20441;-82
2022/12/21 07:42:16;;;;;;;15.35;3.08;;;15.10;66.50;;;;;;4889295;29;20113;-81
2022/12/21 07:44:41;;;;;;;13.50;3.53;;;15.10;66.60;;;;;;4875583;29;20468;-81
2022/12/21 07:47:08;;;;;;;14.00;3.53;;;15.10;66.50;;;;;;4891272;29;20040;-82
2022/12/21 07:49:36;;;;;;;11.65;3.45;;;15.10;66.40;;;;;;4874195;29;20098;-81
2022/12/21 07:52:02;;;;;;;13.48;3.72;;;15.10;66.40;;;;;;4858886;29;20053;-82
2022/12/21 07:54:28;;;;;;;6.15;2.38;;;15.10;66.20;;;;;;4891446;29;20361;-81
2022/12/21 07:56:53;;;;;;;8.50;3.08;;;15.10;66.10;;;;;;4892040;29;20049;-82
2022/12/21 07:59:19;;;;;;;13.48;2.67;;;15.10;66.00;;;;;;4858382;29;20049;-77
2022/12/21 08:01:45;;;;;;;11.07;2.85;;;15.10;65.80;;;;;;4874426;29;20045;-80
2022/12/21 08:04:11;;;;;;;7.10;2.22;;;14.70;65.90;;;;;;4892058;29;20055;-77
2022/12/21 08:06:37;;;;;;;7.22;2.80;;;14.50;66.50;;;;;;4887797;29;20037;-80
2022/12/21 08:09:03;;;;;;;7.22;2.47;;;14.40;67.40;;;;;;4890263;29;20375;-83
2022/12/21 08:11:29;;;;;;;10.38;2.75;;;14.50;67.30;;;;;;4871723;29;20150;-81
2022/12/21 08:13:56;;;;;;;7.85;2.42;;;14.50;67.10;;;;;;4875631;29;20432;-82
2022/12/21 08:16:22;;;;;;;6.85;2.22;;;14.60;66.90;;;;;;4875850;29;20055;-82
2022/12/21 08:18:48;;;;;;;7.00;2.50;;;14.60;66.70;;;;;;4891481;29;20048;-85
2022/12/21 08:21:15;;;;;;;8.05;2.22;;;14.70;66.60;;;;;;4873615;29;20055;-81
2022/12/21 08:23:41;;;;;;;6.13;2.22;;;14.70;66.40;;;;;;4874710;29;20048;-81
2022/12/21 08:26:12;;;;;;;6.15;2.38;;;14.70;66.20;;;;;;4874824;29;20037;-81
2022/12/21 08:28:39;;;;;;;6.63;2.33;;;14.70;66.10;;;;;;4856260;29;20052;-81
2022/12/21 08:31:10;;;;;;;10.25;2.60;;;14.70;66.00;;;;;;4874102;29;20102;-80
2022/12/21 08:33:37;;;;;;;6.38;2.40;;;14.70;66.00;;;;;;4888654;29;20479;-75
2022/12/21 08:36:07;;;;;;;5.10;2.47;;;14.70;66.00;;;;;;4881771;29;20368;-83
2022/12/21 08:38:33;;;;;;;5.93;2.33;;;14.70;66.20;;;;;;4882329;29;20053;-74
2022/12/21 08:41:03;;;;;;;6.70;2.50;;;14.60;66.10;;;;;;4881342;29;20448;-73
2022/12/21 08:43:29;;;;;;;6.95;2.28;;;14.70;66.10;;;;;;4881208;29;20151;-80
2022/12/21 08:45:55;;;;;;;12.27;5.60;;;14.60;66.20;;;;;;4865342;29;20053;-81
2022/12/21 08:48:21;;;;;;;12.80;6.25;;;14.60;67.30;;;;;;4849596;29;20063;-87
2022/12/21 08:50:51;;;;;;;15.82;5.07;;;14.60;69.10;;;;;;4849602;29;20053;-77
2022/12/21 08:53:17;;;;;;;12.90;4.93;;;14.60;70.50;;;;;;4849867;29;20136;-78
2022/12/21 08:55:43;;;;;;;12.20;4.53;;;14.60;71.30;;;;;;4881200;29;20128;-82
2022/12/21 08:58:08;;;;;;;16.95;5.50;;;14.60;71.70;;;;;;4849690;29;20484;-82
2022/12/21 09:00:34;;;;;;;14.38;4.78;;;14.60;71.60;;;;;;4865127;29;20188;-76
2022/12/21 09:03:06;;;;;;;9.85;4.55;;;14.60;72.00;;;;;;4881158;29;20118;-82
2022/12/21 09:05:32;;;;;;;15.88;4.80;;;14.70;72.60;;;;;;4849569;29;20044;-73
2022/12/21 09:07:59;;;;;;;13.18;4.65;;;14.70;72.50;;;;;;4881401;29;20037;-80
2022/12/21 09:10:24;;;;;;;8.35;3.80;;;14.70;71.40;;;;;;4881253;29;20055;-80
2022/12/21 09:12:50;;;;;;;9.68;4.10;;;14.70;70.80;;;;;;4865262;29;20435;-84
2022/12/21 09:15:16;;;;;;;7.18;3.78;;;14.70;70.20;;;;;;4865764;29;20059;-81
2022/12/21 09:17:42;;;;;;;15.07;3.92;;;14.70;69.70;;;;;;4881612;29;20476;-79
2022/12/21 09:20:08;;;;;;;8.65;3.80;;;14.70;69.60;;;;;;4881251;29;20496;-81
2022/12/21 09:22:34;;;;;;;9.23;3.53;;;14.70;69.50;;;;;;4865128;29;20068;-81
2022/12/21 09:25:00;;;;;;;8.88;3.13;;;14.60;69.30;;;;;;4881173;29;20129;-78
2022/12/21 09:27:26;;;;;;;9.40;3.63;;;14.60;69.20;;;;;;4881163;29;20055;-78
2022/12/21 09:29:52;;;;;;;6.25;2.85;;;14.60;69.10;;;;;;4864830;29;20049;-82
2022/12/21 09:32:17;;;;;;;7.55;2.83;;;14.60;69.00;;;;;;4864952;29;20067;-81
2022/12/21 09:34:43;;;;;;;4.85;2.47;;;14.60;69.10;;;;;;4881519;29;20068;-82
2022/12/21 09:37:09;;;;;;;4.82;2.67;;;14.60;69.10;;;;;;4864879;29;20052;-77
2022/12/21 09:39:34;;;;;;;5.05;2.17;;;14.60;69.20;;;;;;4881157;29;20132;-79
2022/12/21 09:42:26;;;;;;;10.07;3.50;;;14.60;68.80;;;;;;4865432;29;20056;-79
2022/12/21 09:45:30;;;;;;;7.45;4.45;;;14.60;68.20;;;;;;4881050;29;20074;-77
2022/12/21 09:47:59;;;;;;;;;;;14.60;67.20;;;;;;4877205;29;20087;-78
2022/12/21 09:50:28;;;;;;;11.55;6.35;;;14.50;67.00;;;;;;4881024;29;19924;-74
2022/12/21 09:53:32;;;;;;;8.15;5.70;;;14.40;65.60;;;;;;4880585;29;20041;-80
2022/12/21 09:55:59;;;;;;;9.98;6.03;;;14.40;64.90;;;;;;4851043;29;20065;-81
2022/12/21 09:58:45;;;;;;;7.95;5.20;;;14.30;64.80;;;;;;4845801;29;20045;-77
2022/12/21 10:01:26;;;;;;;8.15;5.13;;;14.30;64.70;;;;;;4865217;29;20053;-74
2022/12/21 10:03:52;;;;;;;13.40;5.22;;;14.30;64.60;;;;;;4866060;29;20097;-80
2022/12/21 10:06:46;;;;;;;12.90;4.75;;;14.30;64.70;;;;;;4865140;29;20397;-76
2022/12/21 10:09:43;;;;;;;11.15;4.35;;;14.20;64.70;;;;;;4866286;29;20060;-85
2022/12/21 10:12:27;;;;;;;9.25;3.28;;;14.40;64.80;;;;;;4867853;29;20172;-84
2022/12/21 10:15:33;;;;;;;8.15;3.65;;;14.30;65.30;;;;;;4867434;29;20056;-83
2022/12/21 10:18:29;;;;;;;10.18;2.78;;;14.30;64.70;;;;;;4867609;29;20057;-83
2022/12/21 10:21:09;;;;;;;4.00;2.53;;;14.30;64.80;;;;;;4866446;29;20480;-85
2022/12/21 10:23:41;;;;;;;9.75;2.97;;;14.30;64.70;;;;;;4867636;29;20441;-83
2022/12/21 10:26:13;;;;;;;4.72;1.98;;;14.30;64.70;;;;;;4867799;29;20052;-83
2022/12/21 10:28:52;;;;;;;4.55;2.67;;;14.30;64.70;;;;;;4867767;29;20040;-85
2022/12/21 10:31:26;;;;;;;3.45;2.13;;;14.20;64.60;;;;;;4853185;29;20045;-83
2022/12/21 10:33:55;;;;;;;4.32;1.70;;;14.30;64.70;;;;;;4851882;29;20055;-83
2022/12/21 10:36:26;;;;;;;4.95;2.10;;;14.30;64.70;;;;;;4852815;29;20429;-83
2022/12/21 10:38:53;;;;;;;3.17;1.50;;;14.20;64.80;;;;;;4867557;29;20356;-83
2022/12/21 10:41:23;;;;;;;4.43;1.77;;;14.20;64.80;;;;;;4852172;29;20535;-84
2022/12/21 10:43:52;;;;;;;4.53;1.60;;;14.20;64.80;;;;;;4883562;29;20095;-84
2022/12/21 10:46:19;;;;;;;3.75;1.38;;;14.20;64.80;;;;;;4851974;29;20045;-85
2022/12/21 10:48:54;;;;;;;2.88;1.60;;;14.20;64.80;;;;;;4852509;29;20037;-83
2022/12/21 10:51:28;;;;;;;3.05;1.30;;;14.20;64.80;;;;;;4866719;29;20141;-86
2022/12/21 10:54:01;;;;;;;3.30;1.55;;;14.20;64.80;;;;;;4866956;29;20073;-83
2022/12/21 10:56:30;;;;;;;4.43;1.40;;;14.20;64.70;;;;;;4851767;29;20049;-79
2022/12/21 10:59:23;;;;;;;3.83;1.92;;;14.20;64.80;;;;;;4883930;29;20096;-76
2022/12/21 11:01:50;;;;;;;6.85;3.22;;;14.20;64.70;;;;;;4879791;29;20409;-81
2022/12/21 11:04:30;;;;;;;6.85;2.50;;;14.20;64.60;;;;;;4866821;29;20045;-79
2022/12/21 11:07:28;;;;;;;6.00;2.67;;;14.20;64.70;;;;;;4883803;29;20049;-78
2022/12/21 11:10:02;;;;;;;4.88;2.30;;;14.20;64.70;;;;;;4865340;29;20065;-80
2022/12/21 11:12:28;;;;;;;4.95;2.65;;;14.10;64.70;;;;;;4866973;29;20047;-81
2022/12/21 11:14:55;;;;;;;6.68;3.05;;;14.10;64.90;;;;;;4883194;29;20045;-78
2022/12/21 11:17:27;;;;;;;5.50;2.60;;;14.10;65.10;;;;;;4881858;29;20044;-80
2022/12/21 11:20:13;;;;;;;5.38;2.42;;;14.10;65.10;;;;;;4865271;29;20041;-81
2022/12/21 11:22:43;;;;;;;4.53;2.17;;;14.10;65.10;;;;;;4847213;29;20060;-79
2022/12/21 11:25:24;;;;;;;3.47;2.10;;;14.10;65.20;;;;;;4864072;29;20053;-79
2022/12/21 11:27:56;;;;;;;4.53;1.75;;;14.10;65.20;;;;;;4846652;29;20053;-79
2022/12/21 11:30:25;;;;;;;6.40;2.30;;;14.10;65.20;;;;;;4859646;29;20069;-80
2022/12/21 11:32:53;;;;;;;4.32;2.15;;;14.10;65.30;;;;;;4866668;29;20215;-80
2022/12/21 11:35:21;;;;;;;5.15;1.70;;;14.10;65.30;;;;;;4883035;29;20127;-79
2022/12/21 11:37:56;;;;;;;2.70;1.65;;;14.10;65.40;;;;;;4866075;29;20136;-79
2022/12/21 11:40:26;;;;;;;2.22;1.40;;;14.10;65.90;;;;;;4865979;29;20464;-79
2022/12/21 11:43:00;;;;;;;2.40;1.50;;;14.10;65.40;;;;;;4882941;29;20412;-81
2022/12/21 11:45:45;;;;;;;3.40;1.27;;;14.10;65.40;;;;;;4882847;29;20045;-80
2022/12/21 11:48:48;;;;;;;2.28;1.10;;;14.10;65.40;;;;;;4865938;29;20379;-80
2022/12/21 11:51:26;;;;;;;3.50;1.27;;;14.10;65.40;;;;;;4865879;29;20060;-80
2022/12/21 11:54:10;;;;;;;2.50;0.98;;;14.10;65.50;;;;;;4866115;29;20053;-82
2022/12/21 11:56:43;;;;;;;3.58;1.55;;;14.10;65.60;;;;;;4865268;29;20053;-78
2022/12/21 11:59:44;;;;;;;2.72;1.13;;;14.00;65.70;;;;;;4865297;29;20064;-78
2022/12/21 12:02:19;;;;;;;3.40;1.55;;;14.00;65.60;;;;;;4882448;29;20408;-81
2022/12/21 12:05:05;;;;;;;3.42;1.10;;;14.00;65.50;;;;;;4865695;29;20477;-78
2022/12/21 12:08:00;;;;;;;8.48;3.92;;;14.00;65.70;;;;;;4882542;29;20053;-78
2022/12/21 12:10:53;;;;;;;10.80;4.15;;;14.00;65.60;;;;;;4873447;29;20049;-80
2022/12/21 12:13:30;;;;;;;13.43;4.32;;;14.00;65.50;;;;;;4881572;29;20433;-79
2022/12/21 12:16:16;;;;;;;9.75;3.95;;;13.90;65.50;;;;;;4884736;29;20057;-78
2022/12/21 12:19:13;;;;;;;11.43;3.80;;;13.90;65.60;;;;;;4881300;29;20061;-82
2022/12/21 12:21:59;;;;;;;11.73;4.82;;;13.90;65.80;;;;;;4849998;29;20104;-80
2022/12/21 12:24:57;;;;;;;14.40;4.32;;;13.90;65.80;;;;;;4881622;29;20109;-78
2022/12/21 12:28:03;;;;;;;9.18;4.45;;;13.90;65.90;;;;;;4869803;29;20135;-80
2022/12/21 12:30:52;;;;;;;17.83;4.82;;;13.90;66.10;;;;;;4866521;29;20053;-80
2022/12/21 12:33:45;;;;;;;13.90;4.78;;;13.90;66.40;;;;;;4881793;29;20051;-80
2022/12/21 12:40:51;;;;;;;17.50;5.05;;;13.90;66.50;;;;;;4881414;29;20384;-82
2022/12/21 12:43:28;;;;;;;20.27;5.47;;;13.90;66.50;;;;;;4801945;29;20127;-76
2022/12/21 12:46:18;;;;;;;18.80;7.93;;;13.90;66.70;;;;;;4822645;29;20483;-78
2022/12/21 12:48:52;;;;;;;23.55;12.88;;;13.90;66.40;;;;;;4822836;29;20057;-80
2022/12/21 12:51:26;;;;;;;42.42;13.52;;;13.90;65.20;;;;;;4822445;29;20046;-79
2022/12/21 12:53:54;;;;;;;21.45;12.27;;;13.70;65.30;;;;;;4821726;29;20351;-84
2022/12/21 12:56:57;;;;;;;22.42;11.98;;;13.70;65.30;;;;;;4793658;29;20082;-78
2022/12/21 12:59:26;;;;;;;21.02;12.00;;;13.60;65.50;;;;;;4808432;29;20058;-79
2022/12/21 13:02:11;;;;;;;23.63;11.27;;;13.60;65.70;;;;;;4806155;29;20087;-79
2022/12/21 13:04:40;;;;;;;17.05;10.73;;;13.60;65.80;;;;;;4822044;29;20133;-80
2022/12/21 13:07:36;;;;;;;18.60;11.75;;;13.60;65.90;;;;;;4827708;29;20052;-78
2022/12/21 13:10:13;;;;;;;16.58;9.98;;;13.70;66.00;;;;;;4881343;29;20092;-77
2022/12/21 13:12:56;;;;;;;17.15;10.02;;;13.70;66.10;;;;;;4887105;29;20061;-79
2022/12/21 13:15:42;;;;;;;15.35;9.88;;;13.70;66.00;;;;;;4871565;29;20045;-78
2022/12/21 13:18:14;;;;;;;20.95;10.32;;;13.70;66.20;;;;;;4889640;29;20369;-79
2022/12/21 13:20:41;;;;;;;14.02;9.25;;;13.70;66.30;;;;;;4887402;29;20040;-79
2022/12/21 13:23:16;;;;;;;23.85;9.43;;;13.70;66.40;;;;;;4889363;29;20057;-78
2022/12/21 13:25:55;;;;;;;18.77;8.93;;;13.70;66.60;;;;;;4883311;29;20055;-82
2022/12/21 13:28:35;;;;;;;16.95;9.25;;;13.70;66.60;;;;;;4886052;29;20067;-81
2022/12/21 13:31:03;;;;;;;20.70;9.10;;;13.80;66.90;;;;;;4882626;29;20419;-79
2022/12/21 13:33:33;;;;;;;15.27;8.40;;;13.70;67.00;;;;;;4883464;29;20391;-80
2022/12/21 13:36:05;;;;;;;21.83;9.85;;;13.80;67.30;;;;;;4892130;29;20482;-77
2022/12/21 13:39:05;;;;;;;21.08;9.65;;;13.80;67.20;;;;;;4877418;29;20055;-77
2022/12/21 13:41:42;;;;;;;17.42;9.63;;;13.80;66.90;;;;;;4885870;29;20476;-77
2022/12/21 13:44:33;;;;;;;25.90;9.23;;;13.70;67.40;;;;;;4884106;29;20396;-78
2022/12/21 13:47:00;;;;;;;24.88;9.55;;;13.70;68.30;;;;;;4885930;29;20084;-80
2022/12/21 13:49:54;;;;;;;16.90;7.05;;;13.80;69.90;;;;;;4884223;29;20144;-81
2022/12/21 13:52:30;;;;;;;15.83;6.40;;;13.80;69.10;;;;;;4883318;29;20057;-80
2022/12/21 13:55:33;;;;;;;13.38;5.85;;;14.00;68.70;;;;;;4881901;29;20033;-81
2022/12/21 13:58:38;;;;;;;13.93;5.13;;;14.10;68.70;;;;;;4881694;29;20096;-82
2022/12/21 14:01:31;;;;;;;12.52;4.15;;;14.40;68.70;;;;;;4881314;29;20437;-81
2022/12/21 14:04:15;;;;;;;12.88;4.78;;;14.50;68.80;;;;;;4883781;29;20373;-79
2022/12/21 14:06:47;;;;;;;18.13;4.70;;;14.60;68.80;;;;;;4868336;29;21513;-79
2022/12/21 14:09:38;;;;;;;17.60;4.63;;;14.70;69.50;;;;;;4867782;29;20092;-80
2022/12/21 14:12:31;;;;;;;15.13;4.85;;;14.80;70.00;;;;;;4884587;29;20059;-77
2022/12/21 14:15:22;;;;;;;16.33;4.47;;;14.80;70.40;;;;;;4884510;29;20049;-77
2022/12/21 14:17:49;;;;;;;16.35;3.83;;;14.80;70.30;;;;;;4866088;29;20144;-77
2022/12/21 14:20:29;;;;;;;15.02;4.68;;;14.80;70.00;;;;;;4865837;29;20053;-77
2022/12/21 14:23:01;;;;;;;14.10;3.70;;;14.90;70.10;;;;;;4865548;29;20484;-77
2022/12/21 14:25:29;;;;;;;10.40;3.38;;;14.90;70.00;;;;;;4865764;29;20331;-75
2022/12/21 14:28:03;;;;;;;11.90;3.72;;;14.90;69.90;;;;;;4865671;29;20521;-80
2022/12/21 14:30:30;;;;;;;;;;;14.90;70.10;;;;;;4865860;29;20064;-79
2022/12/21 14:33:00;;;;;;;16.35;5.03;;;14.90;70.20;;;;;;4865797;29;20332;-78
2022/12/21 14:35:42;;;;;;;18.23;4.28;;;14.90;69.70;;;;;;4883934;29;20045;-78
2022/12/21 14:38:18;;;;;;;16.48;4.05;;;14.90;69.90;;;;;;4883026;29;20051;-78
2022/12/21 14:41:07;;;;;;;14.38;4.15;;;14.90;69.70;;;;;;4883697;29;20465;-78
2022/12/21 14:44:12;;;;;;;23.60;4.15;;;15.00;69.90;;;;;;4876305;29;20088;-78
2022/12/21 14:46:40;;;;;;;;;;;15.10;69.70;;;;;;4885520;29;20052;-77
2022/12/21 14:49:14;;;;;;;18.23;3.83;;;15.20;69.30;;;;;;4882489;29;19952;-79
2022/12/21 14:51:51;;;;;;;14.45;3.95;;;15.40;68.80;;;;;;4867236;29;20053;-77
2022/12/21 14:54:35;;;;;;;17.15;3.65;;;15.50;68.50;;;;;;4883722;29;20048;-77
2022/12/21 14:57:16;;;;;;;14.98;3.00;;;15.60;68.30;;;;;;4883942;29;20052;-79
2022/12/21 14:59:49;;;;;;;16.23;3.40;;;15.70;68.10;;;;;;4883627;29;20052;-77
2022/12/21 15:02:33;;;;;;;9.95;3.17;;;15.70;67.70;;;;;;4883232;29;20045;-77
2022/12/21 15:05:03;;;;;;;12.05;3.28;;;15.80;67.40;;;;;;4867061;29;20069;-79
2022/12/21 15:07:49;;;;;;;11.18;3.03;;;15.90;67.30;;;;;;4883650;29;20094;-79
2022/12/21 15:10:43;;;;;;;9.18;3.08;;;15.80;66.80;;;;;;4883400;29;20128;-79
2022/12/21 15:13:41;;;;;;;13.88;3.55;;;15.80;66.70;;;;;;4846469;29;20068;-77
2022/12/21 15:16:13;;;;;;;9.18;2.38;;;15.80;66.60;;;;;;4882925;29;20045;-77
2022/12/21 15:18:41;;;;;;;7.30;2.80;;;15.90;66.40;;;;;;4866955;29;20061;-80
2022/12/21 15:21:25;;;;;;;11.40;3.08;;;15.90;66.10;;;;;;4883582;29;20365;-78
2022/12/21 15:23:55;;;;;;;5.82;2.33;;;16.00;64.40;;;;;;4883064;29;20154;-74
2022/12/21 15:26:32;;;;;;;6.18;3.33;;;16.10;65.80;;;;;;4882351;29;20052;-73
2022/12/21 15:29:01;;;;;;;10.63;5.22;;;16.10;65.80;;;;;;4865577;29;20053;-75
2022/12/21 15:31:39;;;;;;;12.13;5.40;;;16.10;65.40;;;;;;4850191;29;20112;-78
2022/12/21 15:34:11;;;;;;;10.48;4.35;;;16.20;64.80;;;;;;4882631;29;20125;-78
2022/12/21 15:36:41;;;;;;;10.05;4.53;;;16.20;64.60;;;;;;4882544;29;20049;-79
2022/12/21 15:39:14;;;;;;;11.35;4.78;;;16.30;64.50;;;;;;4882584;29;20045;-78
2022/12/21 15:41:52;;;;;;;12.23;5.13;;;16.30;64.40;;;;;;4872892;29;20072;-79
2022/12/21 15:44:27;;;;;;;8.20;4.50;;;16.30;64.30;;;;;;4882859;29;20075;-79
2022/12/21 15:47:21;;;;;;;9.02;4.15;;;16.20;64.40;;;;;;4881840;29;20053;-76
2022/12/21 15:50:00;;;;;;;8.80;3.90;;;16.20;64.60;;;;;;4867025;29;20135;-76
2022/12/21 15:52:32;;;;;;;8.25;4.38;;;16.30;64.70;;;;;;4882634;29;20548;-78
2022/12/21 15:55:12;;;;;;;9.98;5.03;;;16.30;64.70;;;;;;4883329;29;20048;-77
2022/12/21 15:57:59;;;;;;;9.18;4.85;;;16.30;65.00;;;;;;4881656;29;20052;-79
2022/12/21 16:00:26;;;;;;;13.45;4.63;;;16.20;65.10;;;;;;4866121;29;20060;-80
2022/12/21 16:03:00;;;;;;;17.23;4.90;;;16.20;65.20;;;;;;4866559;29;20053;-79
2022/12/21 16:05:30;;;;;;;13.25;5.25;;;16.20;65.40;;;;;;4866007;29;20049;-78
2022/12/21 16:07:56;;;;;;;11.68;4.78;;;16.20;65.40;;;;;;4882318;29;20052;-80
2022/12/21 16:10:33;;;;;;;12.02;4.57;;;16.20;65.40;;;;;;4866272;29;20464;-78
2022/12/21 16:13:02;;;;;;;14.25;4.85;;;16.20;65.50;;;;;;4881755;29;20061;-79
2022/12/21 16:15:42;;;;;;;9.82;4.72;;;16.20;65.50;;;;;;4881772;29;20114;-78